createdAt,value
2018-10-01T00:00:47.829Z,86.80
2018-10-01T00:05:44.025Z,86.80
2018-10-01T00:13:08.273Z,87.50
2018-10-01T00:15:36.280Z,87.40
2018-10-01T00:18:06.520Z,86.90
2018-10-01T00:20:40.021Z,86.90
2018-10-01T00:23:08.157Z,86.80
2018-10-01T00:25:36.304Z,86.90
2018-10-01T00:28:04.300Z,87.30
2018-10-01T00:30:33.113Z,87.40
2018-10-01T00:33:01.366Z,87.60
2018-10-01T00:42:54.210Z,88.10
2018-10-01T00:45:23.301Z,88.60
2018-10-01T00:47:51.388Z,88.00
2018-10-01T00:50:19.449Z,88.00
2018-10-01T00:52:47.545Z,87.70
2018-10-01T00:57:43.640Z,88.20
2018-10-01T01:02:39.775Z,88.00
2018-10-01T01:05:07.935Z,88.60
2018-10-01T01:07:36.199Z,88.20
2018-10-01T01:10:04.401Z,88.40
2018-10-01T01:15:02.607Z,88.40
2018-10-01T01:17:30.701Z,88.20
2018-10-01T01:19:58.705Z,88.40
2018-10-01T01:22:26.816Z,88.30
2018-10-01T01:24:54.876Z,88.20
2018-10-01T01:29:51.336Z,88.20
2018-10-01T01:34:47.725Z,88.30
2018-10-01T01:37:15.832Z,88.60
2018-10-01T01:39:44.007Z,88.40
2018-10-01T01:42:12.276Z,88.20
2018-10-01T01:44:40.413Z,87.80
2018-10-01T01:49:36.564Z,88.30
2018-10-01T01:52:04.767Z,88.00
2018-10-01T01:54:32.927Z,87.70
2018-10-01T01:57:01.033Z,87.70
2018-10-01T01:59:29.490Z,87.70
2018-10-01T02:01:58.767Z,88.00
2018-10-01T02:04:27.277Z,88.00
2018-10-01T02:11:51.296Z,87.80
2018-10-01T02:14:19.359Z,87.50
2018-10-01T02:16:47.449Z,88.20
2018-10-01T02:19:15.604Z,88.10
2018-10-01T02:21:43.932Z,88.30
2018-10-01T02:24:11.936Z,88.40
2018-10-01T02:29:11.170Z,88.60
2018-10-01T02:31:39.257Z,88.70
2018-10-01T02:34:07.582Z,89.20
2018-10-01T02:36:35.739Z,88.90
2018-10-01T02:39:06.378Z,89.00
2018-10-01T02:41:34.590Z,88.60
2018-10-01T02:44:02.705Z,88.30
2018-10-01T02:46:30.744Z,88.00
2018-10-01T02:51:26.898Z,87.90
2018-10-01T02:54:00.534Z,87.50
2018-10-01T02:56:28.536Z,87.40
2018-10-01T02:58:56.685Z,87.20
2018-10-01T03:01:24.696Z,86.90
2018-10-01T03:03:52.766Z,87.40
2018-10-01T03:08:48.907Z,87.10
2018-10-01T03:21:09.011Z,88.00
2018-10-01T03:23:37.032Z,87.80
2018-10-01T03:26:05.103Z,88.20
2018-10-01T03:28:33.222Z,88.30
2018-10-01T03:31:01.309Z,88.30
2018-10-01T03:35:57.403Z,88.00
2018-10-01T03:38:25.460Z,87.50
2018-10-01T03:40:53.537Z,87.70
2018-10-01T03:43:21.624Z,88.20
2018-10-01T03:45:50.036Z,88.00
2018-10-01T03:48:18.055Z,88.30
2018-10-01T03:53:14.225Z,87.50
2018-10-01T03:58:12.188Z,87.30
2018-10-01T04:00:40.228Z,87.40
2018-10-01T04:03:08.854Z,87.70
2018-10-01T04:05:37.058Z,87.90
2018-10-01T04:08:05.089Z,87.40
2018-10-01T04:10:33.369Z,87.00
2018-10-01T04:13:01.521Z,86.50
2018-10-01T04:15:29.731Z,86.20
2018-10-01T04:20:25.805Z,86.90
2018-10-01T04:22:53.856Z,87.00
2018-10-01T04:25:22.184Z,86.70
2018-10-01T04:27:50.316Z,86.80
2018-10-01T04:30:18.375Z,87.30
2018-10-01T04:32:46.416Z,87.10
2018-10-01T04:35:14.589Z,87.00
2018-10-01T04:37:42.922Z,86.90
2018-10-01T04:40:10.978Z,86.50
2018-10-01T04:45:08.327Z,87.10
2018-10-01T04:47:36.355Z,87.20
2018-10-01T04:50:05.267Z,87.00
2018-10-01T04:55:02.300Z,87.20
2018-10-01T04:57:30.491Z,87.80
2018-10-01T05:02:26.792Z,88.20
2018-10-01T05:04:55.080Z,87.80
2018-10-01T05:07:23.139Z,88.20
2018-10-01T05:09:51.155Z,88.00
2018-10-01T05:12:19.305Z,87.80
2018-10-01T05:14:47.364Z,87.70
2018-10-01T05:22:12.158Z,87.70
2018-10-01T05:24:40.269Z,88.20
2018-10-01T05:29:36.440Z,87.80
2018-10-01T05:32:04.814Z,87.90
2018-10-01T05:34:33.120Z,88.00
2018-10-01T05:37:01.198Z,88.20
2018-10-01T05:41:57.324Z,88.10
2018-10-01T05:44:25.382Z,87.30
2018-10-01T05:46:53.553Z,87.50
2018-10-01T05:49:21.932Z,87.50
2018-10-01T05:51:50.273Z,87.50
2018-10-01T05:54:18.327Z,87.40
2018-10-01T05:59:14.460Z,86.80
2018-10-01T06:01:42.604Z,86.50
2018-10-01T06:04:10.940Z,86.20
2018-10-01T06:09:08.848Z,86.10
2018-10-01T06:11:37.883Z,86.00
2018-10-01T06:16:34.637Z,85.80
2018-10-01T06:19:02.675Z,85.20
2018-10-01T06:21:30.736Z,85.30
2018-10-01T06:26:27.161Z,84.60
2018-10-01T06:28:55.279Z,84.60
2018-10-01T06:33:51.485Z,84.10
2018-10-01T06:36:19.522Z,84.50
2018-10-01T06:38:47.625Z,83.90
2018-10-01T06:41:15.680Z,83.70
2018-10-01T06:46:11.725Z,84.10
2018-10-01T06:48:39.850Z,84.60
2018-10-01T06:53:36.296Z,84.20
2018-10-01T06:56:04.460Z,83.70
2018-10-01T06:58:32.811Z,83.30
2018-10-01T07:01:00.855Z,82.80
2018-10-01T07:03:28.958Z,82.50
2018-10-01T07:10:52.991Z,82.10
2018-10-01T07:15:49.439Z,81.50
2018-10-01T07:18:17.954Z,81.40
2018-10-01T07:20:46.144Z,81.30
2018-10-01T07:23:14.464Z,81.30
2018-10-01T07:33:06.688Z,80.70
2018-10-01T07:35:34.644Z,80.90
2018-10-01T07:38:02.811Z,80.90
2018-10-01T07:40:30.929Z,80.80
2018-10-01T07:42:58.953Z,81.00
2018-10-01T07:45:27.065Z,79.40
2018-10-01T07:47:55.114Z,78.50
2018-10-01T07:50:23.277Z,76.50
2018-10-01T07:52:51.559Z,75.90
2018-10-01T08:00:15.534Z,75.70
2018-10-01T08:02:43.543Z,75.50
2018-10-01T08:07:39.739Z,75.40
2018-10-01T08:10:08.096Z,75.40
2018-10-01T08:12:36.125Z,75.30
2018-10-01T08:15:04.524Z,75.40
2018-10-01T08:17:32.534Z,75.70
2018-10-01T08:20:00.659Z,74.80
2018-10-01T08:22:28.697Z,74.30
2018-10-01T08:24:56.847Z,74.00
2018-10-01T08:27:24.850Z,73.70
2018-10-01T08:32:21.025Z,73.00
2018-10-01T08:34:49.047Z,72.90
2018-10-01T08:37:17.144Z,72.80
2018-10-01T08:42:13.172Z,72.20
2018-10-01T08:44:41.356Z,72.60
2018-10-01T08:54:20.635Z,69.90
2018-10-01T09:01:45.280Z,66.70
2018-10-01T09:04:13.350Z,66.80
2018-10-01T09:06:41.407Z,66.80
2018-10-01T09:09:10.883Z,66.40
2018-10-01T09:11:39.158Z,66.30
2018-10-01T09:14:07.529Z,67.10
2018-10-01T09:16:35.581Z,67.50
2018-10-01T09:19:03.608Z,67.20
2018-10-01T09:21:31.873Z,67.00
2018-10-01T09:24:00.337Z,66.40
2018-10-01T09:26:29.427Z,65.70
2018-10-01T09:28:57.448Z,66.10
2018-10-01T09:31:25.467Z,66.50
2018-10-01T09:33:53.626Z,66.50
2018-10-01T09:36:21.979Z,66.30
2018-10-01T09:38:49.998Z,66.20
2018-10-01T09:41:18.114Z,66.40
2018-10-01T09:43:46.163Z,66.30
2018-10-01T09:46:14.328Z,66.00
2018-10-01T09:48:42.320Z,65.70
2018-10-01T09:51:10.443Z,65.10
2018-10-01T09:56:06.745Z,65.20
2018-10-01T09:58:34.912Z,65.20
2018-10-01T10:03:37.015Z,64.60
2018-10-01T10:06:06.000Z,64.40
2018-10-01T10:08:34.424Z,64.00
2018-10-01T10:15:58.274Z,63.20
2018-10-01T10:23:22.033Z,61.90
2018-10-01T10:28:18.232Z,61.00
2018-10-01T10:30:46.271Z,59.90
2018-10-01T10:33:14.363Z,60.10
2018-10-01T10:35:42.419Z,59.20
2018-10-01T10:38:10.531Z,58.00
2018-10-01T10:40:38.557Z,58.50
2018-10-01T10:45:34.601Z,57.70
2018-10-01T10:48:02.832Z,57.20
2018-10-01T10:50:30.930Z,57.50
2018-10-01T10:52:58.883Z,57.40
2018-10-01T10:55:27.069Z,57.00
2018-10-01T10:57:55.393Z,57.70
2018-10-01T11:00:23.451Z,57.90
2018-10-01T11:02:51.484Z,57.20
2018-10-01T11:05:21.724Z,57.30
2018-10-01T11:07:49.833Z,56.70
2018-10-01T11:12:45.981Z,57.20
2018-10-01T11:15:15.386Z,56.60
2018-10-01T11:17:43.337Z,55.90
2018-10-01T11:20:11.402Z,55.50
2018-10-01T11:22:39.957Z,55.00
2018-10-01T11:25:08.245Z,55.20
2018-10-01T11:27:36.280Z,54.60
2018-10-01T11:30:04.898Z,54.20
2018-10-01T11:32:32.935Z,54.00
2018-10-01T11:35:01.074Z,54.50
2018-10-01T11:39:57.185Z,54.70
2018-10-01T11:42:25.289Z,54.20
2018-10-01T11:47:21.133Z,54.20
2018-10-01T11:52:17.049Z,54.20
2018-10-01T11:54:45.302Z,54.70
2018-10-01T11:57:13.502Z,54.90
2018-10-01T12:04:37.640Z,53.10
2018-10-01T12:07:05.722Z,53.10
2018-10-01T12:09:34.038Z,53.30
2018-10-01T12:12:02.088Z,54.00
2018-10-01T12:14:30.967Z,55.40
2018-10-01T12:16:58.976Z,54.90
2018-10-01T12:19:27.219Z,54.60
2018-10-01T12:21:57.604Z,53.60
2018-10-01T12:24:25.992Z,53.20
2018-10-01T12:26:53.960Z,53.80
2018-10-01T12:31:50.025Z,54.10
2018-10-01T12:34:18.640Z,54.70
2018-10-01T12:36:46.775Z,54.90
2018-10-01T12:41:42.958Z,56.20
2018-10-01T12:44:11.062Z,55.30
2018-10-01T12:46:39.144Z,55.60
2018-10-01T12:49:07.121Z,55.60
2018-10-01T12:51:35.277Z,55.50
2018-10-01T12:56:35.968Z,55.40
2018-10-01T12:59:04.073Z,54.40
2018-10-01T13:01:32.127Z,54.10
2018-10-01T13:04:01.467Z,54.70
2018-10-01T13:06:29.608Z,55.30
2018-10-01T13:08:57.575Z,56.50
2018-10-01T13:11:26.875Z,56.30
2018-10-01T13:13:54.929Z,56.70
2018-10-01T13:18:51.056Z,56.80
2018-10-01T13:21:19.120Z,57.10
2018-10-01T13:26:15.135Z,58.50
2018-10-01T13:28:43.785Z,58.00
2018-10-01T13:31:12.460Z,57.80
2018-10-01T13:33:40.736Z,58.80
2018-10-01T13:38:36.939Z,59.60
2018-10-01T13:41:04.957Z,60.00
2018-10-01T13:46:01.092Z,60.70
2018-10-01T13:53:25.135Z,62.20
2018-10-01T13:55:53.456Z,61.80
2018-10-01T13:58:21.848Z,61.80
2018-10-01T14:00:49.831Z,61.20
2018-10-01T14:05:46.136Z,61.00
2018-10-01T14:08:14.313Z,61.40
2018-10-01T14:10:42.396Z,61.50
2018-10-01T14:13:10.706Z,62.20
2018-10-01T14:20:34.446Z,62.20
2018-10-01T14:23:02.431Z,62.10
2018-10-01T14:25:30.464Z,61.80
2018-10-01T14:27:58.591Z,62.00
2018-10-01T14:35:22.496Z,62.80
2018-10-01T14:37:50.999Z,63.70
2018-10-01T14:40:19.244Z,64.20
2018-10-01T14:42:47.380Z,64.30
2018-10-01T14:47:43.536Z,64.60
2018-10-01T14:50:11.540Z,64.40
2018-10-01T14:52:39.615Z,64.70
2018-10-01T14:55:07.709Z,64.80
2018-10-01T14:57:35.704Z,65.10
2018-10-01T15:00:04.029Z,65.40
2018-10-01T15:02:32.215Z,65.70
2018-10-01T15:05:01.605Z,66.60
2018-10-01T15:09:57.632Z,66.70
2018-10-01T15:12:26.078Z,67.70
2018-10-01T15:19:50.871Z,68.90
2018-10-01T15:22:19.037Z,69.10
2018-10-01T15:24:46.992Z,69.00
2018-10-01T15:27:15.052Z,69.20
2018-10-01T15:29:43.166Z,70.10
2018-10-01T15:32:11.201Z,70.10
2018-10-01T15:34:39.296Z,70.10
2018-10-01T15:37:07.527Z,70.70
2018-10-01T15:44:31.552Z,71.90
2018-10-01T15:46:59.660Z,72.60
2018-10-01T15:51:56.024Z,73.10
2018-10-01T15:54:24.154Z,73.70
2018-10-01T15:56:52.224Z,73.70
2018-10-01T15:59:20.347Z,74.40
2018-10-01T16:01:48.341Z,75.00
2018-10-01T16:04:16.514Z,75.60
2018-10-01T16:06:44.535Z,75.40
2018-10-01T16:09:12.590Z,75.80
2018-10-01T16:14:09.716Z,76.00
2018-10-01T16:16:37.916Z,75.70
2018-10-01T16:19:06.193Z,75.60
2018-10-01T16:21:34.581Z,75.40
2018-10-01T16:24:02.888Z,75.30
2018-10-01T16:26:30.929Z,75.40
2018-10-01T16:28:59.061Z,75.40
2018-10-01T16:31:28.055Z,75.60
2018-10-01T16:33:56.076Z,75.60
2018-10-01T16:36:24.155Z,75.90
2018-10-01T16:38:52.212Z,75.90
2018-10-01T16:41:20.319Z,76.30
2018-10-01T16:48:44.436Z,77.40
2018-10-01T16:51:12.564Z,77.40
2018-10-01T16:53:40.631Z,77.30
2018-10-01T17:01:04.897Z,77.20
2018-10-01T17:03:32.909Z,77.80
2018-10-01T17:06:00.968Z,77.60
2018-10-01T17:08:29.849Z,77.70
2018-10-01T17:10:58.371Z,78.00
2018-10-01T17:13:26.492Z,77.60
2018-10-01T17:15:54.905Z,77.90
2018-10-01T17:20:51.878Z,77.70
2018-10-01T17:23:20.243Z,77.70
2018-10-01T17:25:48.366Z,77.30
2018-10-01T17:28:16.474Z,77.40
2018-10-01T17:30:44.601Z,77.80
2018-10-01T17:33:12.828Z,77.90
2018-10-01T17:35:40.975Z,77.80
2018-10-01T17:38:09.907Z,77.80
2018-10-01T17:40:38.028Z,77.90
2018-10-01T17:43:06.152Z,78.40
2018-10-01T17:45:34.415Z,78.90
2018-10-01T17:48:02.499Z,79.00
2018-10-01T17:50:30.645Z,79.10
2018-10-01T17:52:58.747Z,79.60
2018-10-01T17:55:27.036Z,79.80
2018-10-01T17:57:55.080Z,79.90
2018-10-01T18:00:23.318Z,79.30
2018-10-01T18:02:51.580Z,79.20
2018-10-01T18:05:19.649Z,79.00
2018-10-01T18:07:47.707Z,79.60
2018-10-01T18:10:15.745Z,79.40
2018-10-01T18:12:43.812Z,79.20
2018-10-01T18:15:11.890Z,79.40
2018-10-01T18:17:40.009Z,79.10
2018-10-01T18:22:42.508Z,79.30
2018-10-01T18:25:10.620Z,79.50
2018-10-01T18:27:38.784Z,79.70
2018-10-01T18:30:07.003Z,80.10
2018-10-01T18:39:59.460Z,80.40
2018-10-01T18:42:28.732Z,80.80
2018-10-01T18:44:56.838Z,80.40
2018-10-01T18:47:25.111Z,80.30
2018-10-01T18:49:53.480Z,80.20
2018-10-01T18:52:21.584Z,80.10
2018-10-01T18:54:50.879Z,80.00
2018-10-01T18:57:19.033Z,80.00
2018-10-01T18:59:47.346Z,80.10
2018-10-01T19:02:15.516Z,79.70
2018-10-01T19:04:43.784Z,80.20
2018-10-01T19:07:11.890Z,80.30
2018-10-01T19:09:39.976Z,81.00
2018-10-01T19:12:08.076Z,81.40
2018-10-01T19:14:36.060Z,80.80
2018-10-01T19:17:04.233Z,80.50
2018-10-01T19:19:32.281Z,79.50
2018-10-01T19:22:00.596Z,79.40
2018-10-01T19:24:28.634Z,79.30
2018-10-01T19:26:56.782Z,79.40
2018-10-01T19:29:24.785Z,79.00
2018-10-01T19:31:52.924Z,78.60
2018-10-01T19:34:20.918Z,79.00
2018-10-01T19:36:49.069Z,79.00
2018-10-01T19:39:17.136Z,78.50
2018-10-01T19:41:45.140Z,78.30
2018-10-01T19:44:13.137Z,77.70
2018-10-01T19:49:09.463Z,77.60
2018-10-01T19:51:37.733Z,77.60
2018-10-01T19:54:05.843Z,78.30
2018-10-01T19:56:33.900Z,78.60
2018-10-01T19:59:02.391Z,78.80
2018-10-01T20:04:00.288Z,79.20
2018-10-01T20:06:28.755Z,79.70
2018-10-01T20:08:57.084Z,79.50
2018-10-01T20:11:25.127Z,79.40
2018-10-01T20:13:53.128Z,79.50
2018-10-01T20:16:21.245Z,79.80
2018-10-01T20:18:49.294Z,79.40
2018-10-01T20:21:17.405Z,79.60
2018-10-01T20:23:45.495Z,79.80
2018-10-01T20:26:13.530Z,80.00
2018-10-01T20:28:41.691Z,80.90
2018-10-01T20:31:09.656Z,80.80
2018-10-01T20:36:06.016Z,81.50
2018-10-01T20:38:33.856Z,82.20
2018-10-01T20:41:02.015Z,81.80
2018-10-01T20:43:30.012Z,82.20
2018-10-01T20:45:58.182Z,82.20
2018-10-01T20:48:26.181Z,82.30
2018-10-01T20:53:22.390Z,83.40
2018-10-01T20:55:50.376Z,83.40
2018-10-01T20:58:18.527Z,82.80
2018-10-01T21:05:42.656Z,84.00
2018-10-01T21:08:10.715Z,84.20
2018-10-01T21:10:38.808Z,84.20
2018-10-01T21:13:07.284Z,84.50
2018-10-01T21:15:35.616Z,84.80
2018-10-01T21:18:04.882Z,84.90
2018-10-01T21:23:01.286Z,84.90
2018-10-01T21:25:29.371Z,84.50
2018-10-01T21:27:57.448Z,84.60
2018-10-01T21:30:25.489Z,84.80
2018-10-01T21:35:21.353Z,84.20
2018-10-01T21:37:49.392Z,84.20
2018-10-01T21:40:17.972Z,84.70
2018-10-01T21:42:46.421Z,84.70
2018-10-01T21:47:43.852Z,85.10
2018-10-01T21:50:11.895Z,85.20
2018-10-01T21:52:40.395Z,85.30
2018-10-01T21:55:08.684Z,85.70
2018-10-01T21:57:36.752Z,85.70
2018-10-01T22:00:08.792Z,85.60
2018-10-01T22:02:36.890Z,85.80
2018-10-01T22:05:05.859Z,85.90
2018-10-01T22:07:34.625Z,85.90
2018-10-01T22:10:02.785Z,86.20
2018-10-01T22:15:00.044Z,86.40
2018-10-01T22:17:28.060Z,86.30
2018-10-01T22:19:56.163Z,86.10
2018-10-01T22:22:24.237Z,86.00
2018-10-01T22:24:52.250Z,85.60
2018-10-01T22:27:20.362Z,85.20
2018-10-01T22:29:48.444Z,85.00
2018-10-01T22:32:16.488Z,85.40
2018-10-01T22:34:44.569Z,86.10
2018-10-01T22:37:12.696Z,86.30
2018-10-01T22:44:36.855Z,86.50
2018-10-01T22:47:05.067Z,86.70
2018-10-01T22:49:33.351Z,86.50
2018-10-01T22:52:01.363Z,86.50
2018-10-01T22:56:57.815Z,87.10
2018-10-01T22:59:25.892Z,87.20
2018-10-01T23:01:53.988Z,86.90
2018-10-01T23:04:22.055Z,87.00
2018-10-01T23:06:51.387Z,87.40
2018-10-01T23:11:48.413Z,88.50
2018-10-01T23:14:16.479Z,88.60
2018-10-01T23:16:44.581Z,88.40
2018-10-01T23:21:40.673Z,89.10
2018-10-01T23:24:08.859Z,88.90
2018-10-01T23:26:37.156Z,88.90
2018-10-01T23:29:06.463Z,89.00
2018-10-01T23:31:34.448Z,89.20
2018-10-01T23:34:02.560Z,89.10
2018-10-01T23:39:02.516Z,89.40
2018-10-01T23:41:30.577Z,89.10
2018-10-01T23:46:26.631Z,89.70
2018-10-01T23:51:23.684Z,89.70
2018-10-01T23:53:52.052Z,89.60
2018-10-01T23:56:20.136Z,89.60
2018-10-01T23:58:48.292Z,89.70
